sensor_id;sensor_type;location;lat;lon;timestamp;temperature;humidity
16404;DHT22;8311;50.158;8.642;2022-09-21T00:02:04;19.60;50.50
16404;DHT22;8311;50.158;8.642;2022-09-21T00:04:58;19.60;50.50
16404;DHT22;8311;50.158;8.642;2022-09-21T00:07:51;19.70;50.50
16404;DHT22;8311;50.158;8.642;2022-09-21T00:10:48;19.60;50.50
16404;DHT22;8311;50.158;8.642;2022-09-21T00:13:42;19.60;50.50
16404;DHT22;8311;50.158;8.642;2022-09-21T00:16:38;19.60;50.50
16404;DHT22;8311;50.158;8.642;2022-09-21T00:19:30;19.70;50.60
16404;DHT22;8311;50.158;8.642;2022-09-21T00:22:27;19.60;50.50
16404;DHT22;8311;50.158;8.642;2022-09-21T00:25:20;19.60;50.50
16404;DHT22;8311;50.158;8.642;2022-09-21T00:28:14;19.60;50.50
16404;DHT22;8311;50.158;8.642;2022-09-21T00:31:09;19.60;50.50
16404;DHT22;8311;50.158;8.642;2022-09-21T00:34:04;19.60;50.50
16404;DHT22;8311;50.158;8.642;2022-09-21T00:36:59;19.60;50.50
16404;DHT22;8311;50.158;8.642;2022-09-21T00:39:53;19.60;50.50
16404;DHT22;8311;50.158;8.642;2022-09-21T00:42:46;19.60;50.50
16404;DHT22;8311;50.158;8.642;2022-09-21T00:45:40;19.60;50.50
16404;DHT22;8311;50.158;8.642;2022-09-21T00:48:33;19.60;50.50
16404;DHT22;8311;50.158;8.642;2022-09-21T00:51:27;19.60;50.50
16404;DHT22;8311;50.158;8.642;2022-09-21T00:54:24;19.60;50.50
16404;DHT22;8311;50.158;8.642;2022-09-21T00:57:22;19.60;50.50
16404;DHT22;8311;50.158;8.642;2022-09-21T01:00:16;19.60;50.50
16404;DHT22;8311;50.158;8.642;2022-09-21T01:03:11;19.60;50.50
16404;DHT22;8311;50.158;8.642;2022-09-21T01:06:05;19.60;50.50
16404;DHT22;8311;50.158;8.642;2022-09-21T01:08:57;19.60;50.50
16404;DHT22;8311;50.158;8.642;2022-09-21T01:11:59;19.60;50.50
16404;DHT22;8311;50.158;8.642;2022-09-21T01:15:21;19.60;50.50
16404;DHT22;8311;50.158;8.642;2022-09-21T01:18:19;19.60;50.50
16404;DHT22;8311;50.158;8.642;2022-09-21T01:21:20;19.60;50.50
16404;DHT22;8311;50.158;8.642;2022-09-21T01:24:30;19.60;50.40
16404;DHT22;8311;50.158;8.642;2022-09-21T01:31:03;19.60;50.40
16404;DHT22;8311;50.158;8.642;2022-09-21T01:34:00;19.60;50.40
16404;DHT22;8311;50.158;8.642;2022-09-21T01:36:59;19.60;50.40
16404;DHT22;8311;50.158;8.642;2022-09-21T01:39:58;19.60;50.40
16404;DHT22;8311;50.158;8.642;2022-09-21T01:42:54;19.60;50.50
16404;DHT22;8311;50.158;8.642;2022-09-21T01:45:50;19.60;50.50
16404;DHT22;8311;50.158;8.642;2022-09-21T01:48:51;19.60;50.40
16404;DHT22;8311;50.158;8.642;2022-09-21T01:51:52;19.60;50.40
16404;DHT22;8311;50.158;8.642;2022-09-21T01:54:50;19.60;50.40
16404;DHT22;8311;50.158;8.642;2022-09-21T01:57:49;19.60;50.40
16404;DHT22;8311;50.158;8.642;2022-09-21T02:00:46;19.60;50.40
16404;DHT22;8311;50.158;8.642;2022-09-21T02:03:43;19.60;50.40
16404;DHT22;8311;50.158;8.642;2022-09-21T02:06:42;19.60;50.40
16404;DHT22;8311;50.158;8.642;2022-09-21T02:09:36;19.60;50.40
16404;DHT22;8311;50.158;8.642;2022-09-21T02:12:29;19.60;50.40
16404;DHT22;8311;50.158;8.642;2022-09-21T02:15:28;19.60;50.40
16404;DHT22;8311;50.158;8.642;2022-09-21T02:18:34;19.60;50.40
16404;DHT22;8311;50.158;8.642;2022-09-21T02:21:41;19.60;50.40
16404;DHT22;8311;50.158;8.642;2022-09-21T02:24:39;19.60;50.40
16404;DHT22;8311;50.158;8.642;2022-09-21T02:27:38;19.60;50.40
16404;DHT22;8311;50.158;8.642;2022-09-21T02:30:36;19.60;50.40
16404;DHT22;8311;50.158;8.642;2022-09-21T02:33:33;19.60;50.40
16404;DHT22;8311;50.158;8.642;2022-09-21T02:36:32;19.60;50.30
16404;DHT22;8311;50.158;8.642;2022-09-21T02:39:29;19.60;50.40
16404;DHT22;8311;50.158;8.642;2022-09-21T02:42:27;19.60;50.30
16404;DHT22;8311;50.158;8.642;2022-09-21T02:45:24;19.60;50.30
16404;DHT22;8311;50.158;8.642;2022-09-21T02:48:23;19.60;50.30
16404;DHT22;8311;50.158;8.642;2022-09-21T02:51:21;19.60;50.30
16404;DHT22;8311;50.158;8.642;2022-09-21T02:54:21;19.60;50.30
16404;DHT22;8311;50.158;8.642;2022-09-21T02:57:20;19.60;50.90
16404;DHT22;8311;50.158;8.642;2022-09-21T03:00:15;19.60;50.30
16404;DHT22;8311;50.158;8.642;2022-09-21T03:03:17;19.60;50.30
16404;DHT22;8311;50.158;8.642;2022-09-21T03:06:11;19.60;50.20
16404;DHT22;8311;50.158;8.642;2022-09-21T03:09:03;19.60;50.30
16404;DHT22;8311;50.158;8.642;2022-09-21T03:11:56;19.60;50.30
16404;DHT22;8311;50.158;8.642;2022-09-21T03:14:51;19.60;50.30
16404;DHT22;8311;50.158;8.642;2022-09-21T03:17:44;19.60;50.30
16404;DHT22;8311;50.158;8.642;2022-09-21T03:20:37;19.60;50.30
16404;DHT22;8311;50.158;8.642;2022-09-21T03:23:31;19.60;50.20
16404;DHT22;8311;50.158;8.642;2022-09-21T03:26:24;19.60;50.20
16404;DHT22;8311;50.158;8.642;2022-09-21T03:29:17;19.60;50.30
16404;DHT22;8311;50.158;8.642;2022-09-21T03:32:11;19.60;50.20
16404;DHT22;8311;50.158;8.642;2022-09-21T03:35:05;19.60;50.20
16404;DHT22;8311;50.158;8.642;2022-09-21T03:37:59;19.60;50.30
16404;DHT22;8311;50.158;8.642;2022-09-21T03:40:52;19.60;50.30
16404;DHT22;8311;50.158;8.642;2022-09-21T03:43:49;19.60;50.20
16404;DHT22;8311;50.158;8.642;2022-09-21T03:46:42;19.60;50.20
16404;DHT22;8311;50.158;8.642;2022-09-21T03:49:37;19.60;50.20
16404;DHT22;8311;50.158;8.642;2022-09-21T03:52:31;19.60;50.10
16404;DHT22;8311;50.158;8.642;2022-09-21T03:55:24;19.60;50.20
16404;DHT22;8311;50.158;8.642;2022-09-21T03:58:16;19.60;50.20
16404;DHT22;8311;50.158;8.642;2022-09-21T04:01:10;19.50;50.10
16404;DHT22;8311;50.158;8.642;2022-09-21T04:04:03;19.60;50.20
16404;DHT22;8311;50.158;8.642;2022-09-21T04:06:58;19.60;50.10
16404;DHT22;8311;50.158;8.642;2022-09-21T04:09:51;19.60;50.20
16404;DHT22;8311;50.158;8.642;2022-09-21T04:12:45;19.60;50.20
16404;DHT22;8311;50.158;8.642;2022-09-21T04:15:38;19.60;50.20
16404;DHT22;8311;50.158;8.642;2022-09-21T04:18:32;19.60;50.20
16404;DHT22;8311;50.158;8.642;2022-09-21T04:21:26;19.60;50.70
16404;DHT22;8311;50.158;8.642;2022-09-21T04:24:21;19.60;50.10
16404;DHT22;8311;50.158;8.642;2022-09-21T04:27:14;19.60;50.10
16404;DHT22;8311;50.158;8.642;2022-09-21T04:30:08;19.60;50.20
16404;DHT22;8311;50.158;8.642;2022-09-21T04:33:01;19.60;50.10
16404;DHT22;8311;50.158;8.642;2022-09-21T04:35:55;19.60;50.20
16404;DHT22;8311;50.158;8.642;2022-09-21T04:38:48;19.60;50.10
16404;DHT22;8311;50.158;8.642;2022-09-21T04:41:43;19.50;50.10
16404;DHT22;8311;50.158;8.642;2022-09-21T04:44:37;19.50;50.10
16404;DHT22;8311;50.158;8.642;2022-09-21T04:47:31;19.50;50.10
16404;DHT22;8311;50.158;8.642;2022-09-21T04:50:24;19.60;50.20
16404;DHT22;8311;50.158;8.642;2022-09-21T04:53:17;19.50;50.10
16404;DHT22;8311;50.158;8.642;2022-09-21T04:56:13;19.60;50.10
16404;DHT22;8311;50.158;8.642;2022-09-21T04:59:08;19.50;50.00
16404;DHT22;8311;50.158;8.642;2022-09-21T05:02:00;19.50;50.00
16404;DHT22;8311;50.158;8.642;2022-09-21T05:04:54;19.50;50.00
16404;DHT22;8311;50.158;8.642;2022-09-21T05:07:47;19.50;50.00
16404;DHT22;8311;50.158;8.642;2022-09-21T05:10:40;19.50;50.00
16404;DHT22;8311;50.158;8.642;2022-09-21T05:13:32;19.50;50.00
16404;DHT22;8311;50.158;8.642;2022-09-21T05:16:26;19.50;50.00
16404;DHT22;8311;50.158;8.642;2022-09-21T05:19:19;19.50;49.90
16404;DHT22;8311;50.158;8.642;2022-09-21T05:22:14;19.50;50.00
16404;DHT22;8311;50.158;8.642;2022-09-21T05:25:08;19.50;50.00
16404;DHT22;8311;50.158;8.642;2022-09-21T05:28:02;19.50;50.00
16404;DHT22;8311;50.158;8.642;2022-09-21T05:30:59;19.50;49.90
16404;DHT22;8311;50.158;8.642;2022-09-21T05:34:23;19.50;50.00
16404;DHT22;8311;50.158;8.642;2022-09-21T05:37:37;19.50;50.00
16404;DHT22;8311;50.158;8.642;2022-09-21T05:40:31;19.50;50.00
16404;DHT22;8311;50.158;8.642;2022-09-21T05:43:25;19.50;49.90
16404;DHT22;8311;50.158;8.642;2022-09-21T05:46:32;19.50;49.90
16404;DHT22;8311;50.158;8.642;2022-09-21T05:49:38;19.50;49.90
16404;DHT22;8311;50.158;8.642;2022-09-21T05:52:40;19.50;49.90
16404;DHT22;8311;50.158;8.642;2022-09-21T05:55:44;19.50;49.90
16404;DHT22;8311;50.158;8.642;2022-09-21T05:58:45;19.50;49.90
16404;DHT22;8311;50.158;8.642;2022-09-21T06:01:54;19.50;49.90
16404;DHT22;8311;50.158;8.642;2022-09-21T06:04:52;19.50;49.90
16404;DHT22;8311;50.158;8.642;2022-09-21T06:07:48;19.50;49.90
16404;DHT22;8311;50.158;8.642;2022-09-21T06:10:41;19.50;49.90
16404;DHT22;8311;50.158;8.642;2022-09-21T06:13:34;19.50;49.90
16404;DHT22;8311;50.158;8.642;2022-09-21T06:16:36;19.50;49.90
16404;DHT22;8311;50.158;8.642;2022-09-21T06:19:29;19.50;49.90
16404;DHT22;8311;50.158;8.642;2022-09-21T06:22:23;19.50;49.90
16404;DHT22;8311;50.158;8.642;2022-09-21T06:25:17;19.50;49.90
16404;DHT22;8311;50.158;8.642;2022-09-21T06:28:12;19.50;49.90
16404;DHT22;8311;50.158;8.642;2022-09-21T06:31:05;19.50;49.80
16404;DHT22;8311;50.158;8.642;2022-09-21T06:33:58;19.50;49.60
16404;DHT22;8311;50.158;8.642;2022-09-21T06:36:52;19.50;49.40
16404;DHT22;8311;50.158;8.642;2022-09-21T06:39:46;19.50;49.30
16404;DHT22;8311;50.158;8.642;2022-09-21T06:42:39;19.50;49.10
16404;DHT22;8311;50.158;8.642;2022-09-21T06:45:32;19.50;49.00
16404;DHT22;8311;50.158;8.642;2022-09-21T06:48:27;19.50;48.90
16404;DHT22;8311;50.158;8.642;2022-09-21T06:51:20;19.50;48.80
16404;DHT22;8311;50.158;8.642;2022-09-21T06:54:15;19.50;48.70
16404;DHT22;8311;50.158;8.642;2022-09-21T06:57:10;19.50;48.60
16404;DHT22;8311;50.158;8.642;2022-09-21T07:00:06;19.40;49.20
16404;DHT22;8311;50.158;8.642;2022-09-21T07:03:00;19.50;48.50
16404;DHT22;8311;50.158;8.642;2022-09-21T07:05:53;19.50;48.50
16404;DHT22;8311;50.158;8.642;2022-09-21T07:08:46;19.50;48.30
16404;DHT22;8311;50.158;8.642;2022-09-21T07:12:01;19.50;48.30
16404;DHT22;8311;50.158;8.642;2022-09-21T07:14:55;19.40;48.30
16404;DHT22;8311;50.158;8.642;2022-09-21T07:17:49;19.40;48.40
16404;DHT22;8311;50.158;8.642;2022-09-21T07:20:55;19.40;48.40
16404;DHT22;8311;50.158;8.642;2022-09-21T07:23:48;19.50;48.50
16404;DHT22;8311;50.158;8.642;2022-09-21T07:26:41;19.50;48.50
16404;DHT22;8311;50.158;8.642;2022-09-21T07:29:34;19.40;48.50
16404;DHT22;8311;50.158;8.642;2022-09-21T07:32:28;19.50;48.60
16404;DHT22;8311;50.158;8.642;2022-09-21T07:35:22;19.50;48.60
16404;DHT22;8311;50.158;8.642;2022-09-21T07:38:15;19.40;48.60
16404;DHT22;8311;50.158;8.642;2022-09-21T07:41:09;19.40;48.70
16404;DHT22;8311;50.158;8.642;2022-09-21T07:44:03;19.40;48.70
16404;DHT22;8311;50.158;8.642;2022-09-21T07:46:57;19.40;48.70
16404;DHT22;8311;50.158;8.642;2022-09-21T07:49:51;19.40;48.80
16404;DHT22;8311;50.158;8.642;2022-09-21T07:52:44;19.40;48.80
16404;DHT22;8311;50.158;8.642;2022-09-21T07:55:37;19.40;48.90
16404;DHT22;8311;50.158;8.642;2022-09-21T07:58:30;19.50;48.90
16404;DHT22;8311;50.158;8.642;2022-09-21T08:01:41;19.40;48.90
16404;DHT22;8311;50.158;8.642;2022-09-21T08:04:34;19.50;48.90
16404;DHT22;8311;50.158;8.642;2022-09-21T08:07:28;19.50;48.90
16404;DHT22;8311;50.158;8.642;2022-09-21T08:14:47;19.50;48.90
16404;DHT22;8311;50.158;8.642;2022-09-21T08:17:41;19.50;48.90
16404;DHT22;8311;50.158;8.642;2022-09-21T08:20:34;19.50;48.90
16404;DHT22;8311;50.158;8.642;2022-09-21T08:23:28;19.50;48.90
16404;DHT22;8311;50.158;8.642;2022-09-21T08:26:22;19.60;48.90
16404;DHT22;8311;50.158;8.642;2022-09-21T08:29:15;19.60;48.90
16404;DHT22;8311;50.158;8.642;2022-09-21T08:32:08;19.60;48.90
16404;DHT22;8311;50.158;8.642;2022-09-21T08:35:21;19.60;48.90
16404;DHT22;8311;50.158;8.642;2022-09-21T08:38:14;19.60;48.90
16404;DHT22;8311;50.158;8.642;2022-09-21T08:41:16;19.60;49.00
16404;DHT22;8311;50.158;8.642;2022-09-21T08:44:15;19.70;49.00
16404;DHT22;8311;50.158;8.642;2022-09-21T08:47:12;19.70;49.00
16404;DHT22;8311;50.158;8.642;2022-09-21T08:50:22;19.70;49.00
16404;DHT22;8311;50.158;8.642;2022-09-21T08:53:21;19.80;49.00
16404;DHT22;8311;50.158;8.642;2022-09-21T08:56:19;19.80;49.00
16404;DHT22;8311;50.158;8.642;2022-09-21T08:59:14;19.80;49.00
16404;DHT22;8311;50.158;8.642;2022-09-21T09:02:27;19.80;49.00
16404;DHT22;8311;50.158;8.642;2022-09-21T09:05:34;19.80;49.00
16404;DHT22;8311;50.158;8.642;2022-09-21T09:08:51;19.80;49.00
16404;DHT22;8311;50.158;8.642;2022-09-21T09:12:04;19.80;49.00
16404;DHT22;8311;50.158;8.642;2022-09-21T09:15:13;19.90;49.10
16404;DHT22;8311;50.158;8.642;2022-09-21T09:18:15;19.90;49.00
16404;DHT22;8311;50.158;8.642;2022-09-21T09:21:12;19.90;49.00
16404;DHT22;8311;50.158;8.642;2022-09-21T09:24:30;19.90;48.90
16404;DHT22;8311;50.158;8.642;2022-09-21T09:27:27;20.00;49.00
16404;DHT22;8311;50.158;8.642;2022-09-21T09:30:24;20.00;49.00
16404;DHT22;8311;50.158;8.642;2022-09-21T09:33:22;20.00;49.00
16404;DHT22;8311;50.158;8.642;2022-09-21T09:36:16;20.00;49.00
16404;DHT22;8311;50.158;8.642;2022-09-21T09:39:29;20.00;48.80
16404;DHT22;8311;50.158;8.642;2022-09-21T09:42:35;20.00;48.90
16404;DHT22;8311;50.158;8.642;2022-09-21T09:45:40;20.10;48.90
16404;DHT22;8311;50.158;8.642;2022-09-21T09:48:45;20.10;48.70
16404;DHT22;8311;50.158;8.642;2022-09-21T09:51:45;20.10;48.70
16404;DHT22;8311;50.158;8.642;2022-09-21T09:54:39;20.10;48.80
16404;DHT22;8311;50.158;8.642;2022-09-21T09:57:34;20.10;48.80
16404;DHT22;8311;50.158;8.642;2022-09-21T10:00:28;20.20;48.70
16404;DHT22;8311;50.158;8.642;2022-09-21T10:03:23;20.20;48.70
16404;DHT22;8311;50.158;8.642;2022-09-21T10:06:30;20.20;48.80
16404;DHT22;8311;50.158;8.642;2022-09-21T10:09:25;20.20;48.70
16404;DHT22;8311;50.158;8.642;2022-09-21T10:12:23;20.20;48.70
16404;DHT22;8311;50.158;8.642;2022-09-21T10:15:19;20.30;48.70
16404;DHT22;8311;50.158;8.642;2022-09-21T10:18:20;20.30;48.80
16404;DHT22;8311;50.158;8.642;2022-09-21T10:21:20;20.30;48.60
16404;DHT22;8311;50.158;8.642;2022-09-21T10:24:19;20.30;48.60
16404;DHT22;8311;50.158;8.642;2022-09-21T10:27:14;20.30;48.70
16404;DHT22;8311;50.158;8.642;2022-09-21T10:30:34;20.30;48.70
16404;DHT22;8311;50.158;8.642;2022-09-21T10:33:29;20.40;48.70
16404;DHT22;8311;50.158;8.642;2022-09-21T10:36:28;20.30;48.60
16404;DHT22;8311;50.158;8.642;2022-09-21T10:39:26;20.30;48.60
16404;DHT22;8311;50.158;8.642;2022-09-21T10:42:20;20.40;48.60
16404;DHT22;8311;50.158;8.642;2022-09-21T10:45:16;20.40;48.70
16404;DHT22;8311;50.158;8.642;2022-09-21T10:48:15;20.40;48.60
16404;DHT22;8311;50.158;8.642;2022-09-21T10:51:27;20.40;48.60
16404;DHT22;8311;50.158;8.642;2022-09-21T10:54:25;20.40;48.60
16404;DHT22;8311;50.158;8.642;2022-09-21T10:57:21;20.40;48.50
16404;DHT22;8311;50.158;8.642;2022-09-21T11:00:30;20.40;48.40
16404;DHT22;8311;50.158;8.642;2022-09-21T11:03:48;20.50;48.40
16404;DHT22;8311;50.158;8.642;2022-09-21T11:06:45;20.50;48.40
16404;DHT22;8311;50.158;8.642;2022-09-21T11:09:44;20.50;49.10
16404;DHT22;8311;50.158;8.642;2022-09-21T11:12:48;20.50;48.50
16404;DHT22;8311;50.158;8.642;2022-09-21T11:15:50;20.50;48.40
16404;DHT22;8311;50.158;8.642;2022-09-21T11:18:54;20.50;48.40
16404;DHT22;8311;50.158;8.642;2022-09-21T11:21:54;20.50;48.50
16404;DHT22;8311;50.158;8.642;2022-09-21T11:24:53;20.50;48.50
16404;DHT22;8311;50.158;8.642;2022-09-21T11:27:55;20.50;48.40
16404;DHT22;8311;50.158;8.642;2022-09-21T11:34:26;20.50;48.50
16404;DHT22;8311;50.158;8.642;2022-09-21T11:37:33;20.50;48.40
16404;DHT22;8311;50.158;8.642;2022-09-21T11:40:48;20.50;48.30
16404;DHT22;8311;50.158;8.642;2022-09-21T11:44:06;20.50;48.20
16404;DHT22;8311;50.158;8.642;2022-09-21T11:47:17;20.50;48.00
16404;DHT22;8311;50.158;8.642;2022-09-21T11:50:31;20.60;48.10
16404;DHT22;8311;50.158;8.642;2022-09-21T11:53:41;20.60;47.90
16404;DHT22;8311;50.158;8.642;2022-09-21T11:56:43;20.60;48.00
16404;DHT22;8311;50.158;8.642;2022-09-21T11:59:53;20.60;48.00
16404;DHT22;8311;50.158;8.642;2022-09-21T12:03:15;20.60;48.10
16404;DHT22;8311;50.158;8.642;2022-09-21T12:06:32;20.60;47.90
16404;DHT22;8311;50.158;8.642;2022-09-21T12:10:02;20.60;48.00
16404;DHT22;8311;50.158;8.642;2022-09-21T12:13:05;20.60;47.80
16404;DHT22;8311;50.158;8.642;2022-09-21T12:16:04;20.60;47.70
16404;DHT22;8311;50.158;8.642;2022-09-21T12:19:02;20.60;47.70
16404;DHT22;8311;50.158;8.642;2022-09-21T12:22:05;20.60;47.50
16404;DHT22;8311;50.158;8.642;2022-09-21T12:25:03;20.60;47.60
16404;DHT22;8311;50.158;8.642;2022-09-21T12:28:02;20.70;47.70
16404;DHT22;8311;50.158;8.642;2022-09-21T12:31:01;20.70;47.80
16404;DHT22;8311;50.158;8.642;2022-09-21T12:33:58;20.70;47.70
16404;DHT22;8311;50.158;8.642;2022-09-21T12:37:07;20.60;47.60
16404;DHT22;8311;50.158;8.642;2022-09-21T12:40:05;20.70;47.70
16404;DHT22;8311;50.158;8.642;2022-09-21T12:43:07;20.60;47.50
16404;DHT22;8311;50.158;8.642;2022-09-21T12:46:08;20.60;47.50
16404;DHT22;8311;50.158;8.642;2022-09-21T12:49:10;20.60;47.60
16404;DHT22;8311;50.158;8.642;2022-09-21T12:52:07;20.60;47.60
16404;DHT22;8311;50.158;8.642;2022-09-21T12:55:12;20.60;47.50
16404;DHT22;8311;50.158;8.642;2022-09-21T12:58:32;20.60;47.40
16404;DHT22;8311;50.158;8.642;2022-09-21T13:01:31;20.60;47.30
16404;DHT22;8311;50.158;8.642;2022-09-21T13:04:35;20.60;47.50
16404;DHT22;8311;50.158;8.642;2022-09-21T13:07:57;20.60;47.60
16404;DHT22;8311;50.158;8.642;2022-09-21T13:10:56;20.60;47.60
16404;DHT22;8311;50.158;8.642;2022-09-21T13:13:53;20.60;47.70
16404;DHT22;8311;50.158;8.642;2022-09-21T13:16:55;20.60;47.80
16404;DHT22;8311;50.158;8.642;2022-09-21T13:20:01;20.60;47.90
16404;DHT22;8311;50.158;8.642;2022-09-21T13:22:59;20.50;47.90
16404;DHT22;8311;50.158;8.642;2022-09-21T13:26:05;20.50;47.80
16404;DHT22;8311;50.158;8.642;2022-09-21T13:29:25;20.50;47.90
16404;DHT22;8311;50.158;8.642;2022-09-21T13:32:22;20.50;47.90
16404;DHT22;8311;50.158;8.642;2022-09-21T13:35:50;20.50;48.00
16404;DHT22;8311;50.158;8.642;2022-09-21T13:39:12;20.50;47.70
16404;DHT22;8311;50.158;8.642;2022-09-21T13:45:54;20.50;48.00
16404;DHT22;8311;50.158;8.642;2022-09-21T13:48:51;20.50;47.90
16404;DHT22;8311;50.158;8.642;2022-09-21T13:51:51;20.50;48.00
16404;DHT22;8311;50.158;8.642;2022-09-21T13:54:48;20.40;48.10
16404;DHT22;8311;50.158;8.642;2022-09-21T13:57:45;20.40;48.10
16404;DHT22;8311;50.158;8.642;2022-09-21T14:00:42;20.40;48.20
16404;DHT22;8311;50.158;8.642;2022-09-21T14:03:45;20.40;48.30
16404;DHT22;8311;50.158;8.642;2022-09-21T14:06:43;20.40;48.00
16404;DHT22;8311;50.158;8.642;2022-09-21T14:09:40;20.40;48.00
16404;DHT22;8311;50.158;8.642;2022-09-21T14:12:40;20.40;48.20
16404;DHT22;8311;50.158;8.642;2022-09-21T14:15:37;20.40;48.20
16404;DHT22;8311;50.158;8.642;2022-09-21T14:18:36;20.40;48.10
16404;DHT22;8311;50.158;8.642;2022-09-21T14:21:29;20.30;48.20
16404;DHT22;8311;50.158;8.642;2022-09-21T14:24:33;20.40;48.20
16404;DHT22;8311;50.158;8.642;2022-09-21T14:27:29;20.30;48.20
16404;DHT22;8311;50.158;8.642;2022-09-21T14:30:26;20.30;48.30
16404;DHT22;8311;50.158;8.642;2022-09-21T14:33:26;20.30;48.30
16404;DHT22;8311;50.158;8.642;2022-09-21T14:36:25;20.30;48.40
16404;DHT22;8311;50.158;8.642;2022-09-21T14:39:27;20.30;48.40
16404;DHT22;8311;50.158;8.642;2022-09-21T14:42:25;20.30;48.50
16404;DHT22;8311;50.158;8.642;2022-09-21T14:45:24;20.20;48.60
16404;DHT22;8311;50.158;8.642;2022-09-21T14:48:24;20.20;48.80
16404;DHT22;8311;50.158;8.642;2022-09-21T14:51:27;20.20;48.90
16404;DHT22;8311;50.158;8.642;2022-09-21T14:54:35;20.20;49.00
16404;DHT22;8311;50.158;8.642;2022-09-21T15:00:54;20.20;49.00
16404;DHT22;8311;50.158;8.642;2022-09-21T15:04:24;20.20;49.10
16404;DHT22;8311;50.158;8.642;2022-09-21T15:07:37;20.20;49.20
16404;DHT22;8311;50.158;8.642;2022-09-21T15:10:55;20.20;49.20
16404;DHT22;8311;50.158;8.642;2022-09-21T15:14:09;20.10;49.20
16404;DHT22;8311;50.158;8.642;2022-09-21T15:17:21;20.20;49.20
16404;DHT22;8311;50.158;8.642;2022-09-21T15:20:21;20.20;49.30
16404;DHT22;8311;50.158;8.642;2022-09-21T15:23:17;20.10;49.30
16404;DHT22;8311;50.158;8.642;2022-09-21T15:26:15;20.10;49.30
16404;DHT22;8311;50.158;8.642;2022-09-21T15:29:20;20.10;49.30
16404;DHT22;8311;50.158;8.642;2022-09-21T15:32:29;20.10;49.40
16404;DHT22;8311;50.158;8.642;2022-09-21T15:35:28;20.10;49.40
16404;DHT22;8311;50.158;8.642;2022-09-21T15:38:26;20.10;49.40
16404;DHT22;8311;50.158;8.642;2022-09-21T15:41:40;20.10;49.40
16404;DHT22;8311;50.158;8.642;2022-09-21T15:44:34;20.10;49.40
16404;DHT22;8311;50.158;8.642;2022-09-21T15:47:29;20.10;49.40
16404;DHT22;8311;50.158;8.642;2022-09-21T15:50:22;20.10;49.40
16404;DHT22;8311;50.158;8.642;2022-09-21T15:53:21;20.10;50.10
16404;DHT22;8311;50.158;8.642;2022-09-21T15:56:18;20.10;49.50
16404;DHT22;8311;50.158;8.642;2022-09-21T15:59:16;20.10;49.50
16404;DHT22;8311;50.158;8.642;2022-09-21T16:02:17;20.10;49.50
16404;DHT22;8311;50.158;8.642;2022-09-21T16:05:14;20.10;49.50
16404;DHT22;8311;50.158;8.642;2022-09-21T16:08:27;20.10;49.50
16404;DHT22;8311;50.158;8.642;2022-09-21T16:11:33;20.10;49.50
16404;DHT22;8311;50.158;8.642;2022-09-21T16:14:28;20.00;49.50
16404;DHT22;8311;50.158;8.642;2022-09-21T16:17:52;20.00;49.50
16404;DHT22;8311;50.158;8.642;2022-09-21T16:20:46;20.00;49.50
16404;DHT22;8311;50.158;8.642;2022-09-21T16:23:42;20.10;49.60
16404;DHT22;8311;50.158;8.642;2022-09-21T16:26:37;20.00;49.50
16404;DHT22;8311;50.158;8.642;2022-09-21T16:29:38;20.00;50.20
16404;DHT22;8311;50.158;8.642;2022-09-21T16:32:33;20.10;49.50
16404;DHT22;8311;50.158;8.642;2022-09-21T16:35:27;20.00;49.50
16404;DHT22;8311;50.158;8.642;2022-09-21T16:38:21;20.00;50.10
16404;DHT22;8311;50.158;8.642;2022-09-21T16:41:17;20.00;49.50
16404;DHT22;8311;50.158;8.642;2022-09-21T16:44:11;20.00;49.50
16404;DHT22;8311;50.158;8.642;2022-09-21T16:47:13;20.00;49.50
16404;DHT22;8311;50.158;8.642;2022-09-21T16:50:11;20.00;49.50
16404;DHT22;8311;50.158;8.642;2022-09-21T16:53:06;20.00;49.50
16404;DHT22;8311;50.158;8.642;2022-09-21T16:55:59;20.00;49.50
16404;DHT22;8311;50.158;8.642;2022-09-21T16:58:55;20.00;49.50
16404;DHT22;8311;50.158;8.642;2022-09-21T17:01:56;20.00;49.50
16404;DHT22;8311;50.158;8.642;2022-09-21T17:04:49;20.00;49.50
16404;DHT22;8311;50.158;8.642;2022-09-21T17:10:47;20.00;49.60
16404;DHT22;8311;50.158;8.642;2022-09-21T17:13:40;20.00;49.60
16404;DHT22;8311;50.158;8.642;2022-09-21T17:16:38;20.00;49.60
16404;DHT22;8311;50.158;8.642;2022-09-21T17:19:31;20.00;49.60
16404;DHT22;8311;50.158;8.642;2022-09-21T17:22:25;20.00;49.70
16404;DHT22;8311;50.158;8.642;2022-09-21T17:25:19;20.00;49.70
16404;DHT22;8311;50.158;8.642;2022-09-21T17:28:20;20.00;49.80
16404;DHT22;8311;50.158;8.642;2022-09-21T17:31:17;20.00;49.80
16404;DHT22;8311;50.158;8.642;2022-09-21T17:34:12;20.00;49.80
16404;DHT22;8311;50.158;8.642;2022-09-21T17:37:06;20.00;49.90
16404;DHT22;8311;50.158;8.642;2022-09-21T17:40:00;20.00;49.90
16404;DHT22;8311;50.158;8.642;2022-09-21T17:43:29;20.00;49.90
16404;DHT22;8311;50.158;8.642;2022-09-21T17:46:29;20.00;50.00
16404;DHT22;8311;50.158;8.642;2022-09-21T17:49:28;20.00;50.00
16404;DHT22;8311;50.158;8.642;2022-09-21T17:52:22;20.00;50.00
16404;DHT22;8311;50.158;8.642;2022-09-21T17:55:34;20.00;50.00
16404;DHT22;8311;50.158;8.642;2022-09-21T17:58:39;20.00;50.00
16404;DHT22;8311;50.158;8.642;2022-09-21T18:01:35;20.00;50.00
16404;DHT22;8311;50.158;8.642;2022-09-21T18:04:32;20.00;50.00
16404;DHT22;8311;50.158;8.642;2022-09-21T18:07:27;20.00;50.10
16404;DHT22;8311;50.158;8.642;2022-09-21T18:10:22;20.00;50.00
16404;DHT22;8311;50.158;8.642;2022-09-21T18:13:22;20.00;50.00
16404;DHT22;8311;50.158;8.642;2022-09-21T18:16:24;20.00;50.10
16404;DHT22;8311;50.158;8.642;2022-09-21T18:19:34;20.00;50.00
16404;DHT22;8311;50.158;8.642;2022-09-21T18:22:35;20.00;50.00
16404;DHT22;8311;50.158;8.642;2022-09-21T18:25:33;20.00;50.10
16404;DHT22;8311;50.158;8.642;2022-09-21T18:28:36;20.00;50.10
16404;DHT22;8311;50.158;8.642;2022-09-21T18:31:40;20.00;50.00
16404;DHT22;8311;50.158;8.642;2022-09-21T18:35:09;20.00;50.10
16404;DHT22;8311;50.158;8.642;2022-09-21T18:38:16;20.00;50.00
16404;DHT22;8311;50.158;8.642;2022-09-21T18:41:18;20.00;50.10
16404;DHT22;8311;50.158;8.642;2022-09-21T18:44:15;20.00;50.70
16404;DHT22;8311;50.158;8.642;2022-09-21T18:47:13;20.00;50.10
16404;DHT22;8311;50.158;8.642;2022-09-21T18:50:20;20.00;50.10
16404;DHT22;8311;50.158;8.642;2022-09-21T18:53:19;20.00;50.20
16404;DHT22;8311;50.158;8.642;2022-09-21T18:56:15;20.00;50.10
16404;DHT22;8311;50.158;8.642;2022-09-21T18:59:11;20.00;50.10
16404;DHT22;8311;50.158;8.642;2022-09-21T19:02:10;20.00;50.10
16404;DHT22;8311;50.158;8.642;2022-09-21T19:05:10;20.00;50.10
16404;DHT22;8311;50.158;8.642;2022-09-21T19:08:11;19.90;50.70
16404;DHT22;8311;50.158;8.642;2022-09-21T19:11:10;19.90;50.10
16404;DHT22;8311;50.158;8.642;2022-09-21T19:14:11;19.90;50.10
16404;DHT22;8311;50.158;8.642;2022-09-21T19:17:18;19.90;50.10
16404;DHT22;8311;50.158;8.642;2022-09-21T19:20:26;20.00;50.20
16404;DHT22;8311;50.158;8.642;2022-09-21T19:23:34;20.00;50.10
16404;DHT22;8311;50.158;8.642;2022-09-21T19:26:33;20.00;50.10
16404;DHT22;8311;50.158;8.642;2022-09-21T19:29:38;20.00;50.10
16404;DHT22;8311;50.158;8.642;2022-09-21T19:32:35;20.00;50.10